NATURA VA

BIENVENIDO A NATURA VA Buscando el máximo realismo



 METAR AND TAF INFORMATION
METAR FOR LEVX
LEVX 201730Z 36009KT 9999 FEW024 BKN041 OVC046 17/12 Q1021 NOSIG

TAF LEVX 201700Z 2018/2118 36009KT 9999 FEW030 TX20/2112Z TN09/2105Z
PROB30
TEMPO 2100/2107 3000 BR BKN010
BECMG 2108/2110 28010KT

 AIRPORT MAP

 RUNWAY INFORMATION